Time;durP1;ratioP1;P1;durP2;ratioP2;P2;SDS_P1;SDS_P2;PMS_P1;PMS_P2;Temp;Humidity;BMP_temperature;BMP_pressure;BME280_temperature;BME280_humidity;BME280_pressure;Samples;Min_cycle;Max_cycle;Signal;HPM_P1;HPM_P2
2023/04/05 00:00:09;;;;;;;5.85;4.15;;;;;;;6.87;46.46;100990.22;5030279;28;20406;-73
2023/04/05 00:02:35;;;;;;;7.18;4.75;;;;;;;6.83;47.01;100990.81;5018147;28;20391;-73
2023/04/05 00:05:02;;;;;;;5.72;5.22;;;;;;;6.77;46.66;100987.94;5022205;28;20941;-73
2023/04/05 00:07:27;;;;;;;5.43;4.93;;;;;;;6.74;46.67;100984.81;5028697;28;20457;-73
2023/04/05 00:09:53;;;;;;;7.73;6.67;;;;;;;6.70;46.79;100988.97;5026679;28;20885;-73
2023/04/05 00:12:18;;;;;;;17.02;15.80;;;;;;;6.67;47.10;100989.38;5021946;28;20923;-73
2023/04/05 00:14:44;;;;;;;13.53;12.67;;;;;;;6.63;46.61;100983.56;5012084;28;20412;-73
2023/04/05 00:17:10;;;;;;;29.05;27.33;;;;;;;6.66;47.14;100979.63;5025937;28;20419;-73
2023/04/05 00:19:36;;;;;;;43.90;41.60;;;;;;;6.66;46.63;100974.25;5015735;28;20412;-73
2023/04/05 00:22:02;;;;;;;72.50;68.70;;;;;;;6.70;47.09;100975.50;5027760;28;20389;-73
2023/04/05 00:24:28;;;;;;;113.67;107.63;;;;;;;6.71;46.89;100977.16;5019736;28;20394;-73
2023/04/05 00:26:53;;;;;;;172.73;163.23;;;;;;;6.65;46.99;100972.59;5029380;28;20426;-73
2023/04/05 00:29:18;;;;;;;169.03;160.33;;;;;;;6.63;46.83;100963.88;5016542;28;20896;-73
2023/04/05 00:31:44;;;;;;;178.67;168.77;;;;;;;6.63;46.79;100966.59;5027943;28;20404;-73
2023/04/05 00:34:11;;;;;;;126.00;119.23;;;;;;;6.65;46.33;100967.22;5022996;28;20399;-73
2023/04/05 00:36:36;;;;;;;122.90;116.55;;;;;;;6.61;46.64;100972.19;5029489;28;20896;-73
2023/04/05 00:39:02;;;;;;;158.13;149.77;;;;;;;6.59;46.56;100962.63;5027049;28;20487;-73
2023/04/05 00:41:27;;;;;;;141.48;134.18;;;;;;;6.61;46.51;100966.81;5027469;28;20887;-72
2023/04/05 00:43:52;;;;;;;140.87;133.27;;;;;;;6.63;46.49;100967.41;5029604;28;20403;-72
2023/04/05 00:46:18;;;;;;;116.77;110.50;;;;;;;6.63;46.21;100964.72;5027855;28;20766;-73
2023/04/05 00:48:43;;;;;;;92.33;87.37;;;;;;;6.64;46.23;100961.00;5031584;28;20403;-73
2023/04/05 00:51:10;;;;;;;115.23;109.33;;;;;;;6.62;46.24;100971.13;5015387;28;20385;-72
2023/04/05 00:53:36;;;;;;;126.45;119.90;;;;;;;6.63;46.02;100964.72;5023329;28;20431;-73
2023/04/05 00:56:05;;;;;;;283.45;268.27;;;;;;;6.62;46.42;100959.53;5024764;28;20753;-72
2023/04/05 00:58:30;;;;;;;318.02;300.23;;;;;;;6.57;46.49;100957.47;5031457;28;20395;-72
2023/04/05 01:01:26;;;;;;;423.13;397.47;;;;;;;6.56;46.44;100957.66;5014065;28;20411;-73
2023/04/05 01:03:53;;;;;;;621.80;579.42;;;;;;;6.53;46.53;100950.84;5011566;28;20399;-73
2023/04/05 01:06:39;;;;;;;864.33;799.78;;;;;;;6.48;47.03;100949.81;5023322;28;20410;-73
2023/04/05 01:09:23;;;;;;;1051.65;961.13;;;;;;;6.50;47.29;100945.03;5030861;28;20984;-73
2023/04/05 01:11:50;;;;;;;1044.60;955.00;;;;;;;6.51;46.89;100939.47;5030965;28;20469;-72
2023/04/05 01:14:15;;;;;;;983.43;903.07;;;;;;;6.51;47.02;100936.75;5018253;28;20393;-73
2023/04/05 01:16:41;;;;;;;893.97;823.87;;;;;;;6.50;46.22;100935.09;5018571;28;20428;-73
2023/04/05 01:19:08;;;;;;;781.00;724.37;;;;;;;6.48;46.18;100930.97;5031106;28;20893;-72
2023/04/05 01:21:36;;;;;;;648.80;604.38;;;;;;;6.47;45.77;100921.22;5022717;28;20791;-72
2023/04/05 01:24:24;;;;;;;565.90;528.90;;;;;;;6.44;46.05;100927.03;5014429;28;20404;-72
2023/04/05 01:26:56;;;;;;;565.88;528.67;;;;;;;6.37;45.76;100927.00;5024217;28;20415;-73
2023/04/05 01:29:53;;;;;;;599.00;560.05;;;;;;;6.30;46.28;100923.47;5030365;28;20393;-73
2023/04/05 01:32:40;;;;;;;957.85;881.80;;;;;;;6.28;46.55;100919.34;5026281;28;20752;-72
2023/04/05 01:35:25;;;;;;;1010.30;927.37;;;;;;;6.23;46.58;100914.56;5021293;28;20462;-72
2023/04/05 01:37:58;;;;;;;1098.20;999.42;;;;;;;6.21;46.48;100914.78;5030693;28;20827;-73
2023/04/05 01:40:24;;;;;;;1254.85;999.90;;;;;;;6.11;47.30;100911.66;5031640;28;20397;-73
2023/04/05 01:42:49;;;;;;;1572.45;999.90;;;;;;;6.05;47.53;100917.88;5029223;28;20397;-73
2023/04/05 01:45:15;;;;;;;1656.57;999.90;;;;;;;5.99;47.74;100918.69;5025803;28;20922;-72
2023/04/05 01:47:41;;;;;;;1695.63;999.90;;;;;;;5.96;47.64;100919.06;5033171;28;20452;-72
2023/04/05 01:50:07;;;;;;;1688.37;999.90;;;;;;;5.96;47.73;100916.38;5025042;28;20443;-73
2023/04/05 01:52:32;;;;;;;1712.68;999.90;;;;;;;5.91;48.13;100920.72;5029193;28;20407;-73
2023/04/05 01:54:57;;;;;;;1575.37;999.90;;;;;;;5.78;48.33;100907.22;5041819;28;20481;-73
2023/04/05 01:57:22;;;;;;;1376.90;999.90;;;;;;;5.81;48.16;100910.31;5026726;28;20422;-73
2023/04/05 01:59:48;;;;;;;1398.83;999.90;;;;;;;5.83;48.09;100907.44;5028249;28;20881;-72
2023/04/05 02:02:13;;;;;;;1307.17;999.90;;;;;;;5.79;47.98;100903.50;5015071;28;20397;-72
2023/04/05 02:04:38;;;;;;;1297.87;999.90;;;;;;;5.82;48.48;100908.47;5021192;28;20866;-72
2023/04/05 02:07:03;;;;;;;1283.30;999.90;;;;;;;5.82;48.29;100898.53;5028791;28;20408;-72
2023/04/05 02:09:29;;;;;;;1288.93;999.90;;;;;;;5.83;48.38;100889.41;5028282;28;20409;-72
2023/04/05 02:11:55;;;;;;;1287.37;999.90;;;;;;;5.81;47.70;100894.19;5017848;28;20450;-72
2023/04/05 02:14:20;;;;;;;1537.22;999.90;;;;;;;5.80;48.19;100902.44;5033679;28;20407;-72
2023/04/05 02:16:46;;;;;;;1818.17;999.90;;;;;;;5.73;48.84;100891.66;5030544;28;20760;-73
2023/04/05 02:19:12;;;;;;;1952.50;999.90;;;;;;;5.67;49.04;100897.88;5033840;28;20395;-73
2023/04/05 02:21:37;;;;;;;1828.25;999.90;;;;;;;5.63;48.92;100894.75;5017631;28;20424;-72
2023/04/05 02:24:03;;;;;;;1563.55;904.00;;;;;;;5.63;48.98;100891.25;5029934;28;20428;-73
2023/04/05 02:26:28;;;;;;;1999.90;999.90;;;;;;;5.61;49.30;100898.69;5014670;28;20430;-73
2023/04/05 02:28:53;;;;;;;851.00;501.73;;;;;;;5.59;49.29;100901.59;5033505;28;20821;-73
2023/04/05 02:31:18;;;;;;;1999.90;999.90;;;;;;;5.56;49.46;100895.78;5032943;28;20492;-72
2023/04/05 02:33:44;;;;;;;1999.90;999.90;;;;;;;5.50;49.10;100894.69;5030196;28;20853;-73
2023/04/05 02:36:12;;;;;;;1999.90;999.90;;;;;;;5.44;49.71;100890.13;5020288;28;20395;-73
2023/04/05 02:38:37;;;;;;;1999.90;999.90;;;;;;;5.45;49.72;100890.97;5032152;28;20835;-72
2023/04/05 02:41:02;;;;;;;1999.90;999.90;;;;;;;5.46;49.59;100890.78;5017862;28;20425;-72
2023/04/05 02:43:28;;;;;;;1999.90;999.90;;;;;;;5.45;49.57;100891.81;5036545;28;20399;-73
2023/04/05 02:45:53;;;;;;;1999.90;999.90;;;;;;;5.43;49.37;100890.34;5027086;28;20393;-73
2023/04/05 02:48:19;;;;;;;1999.90;999.90;;;;;;;5.42;49.40;100891.38;5028679;28;20415;-72
2023/04/05 02:50:50;;;;;;;1999.90;999.90;;;;;;;5.42;49.42;100886.00;5019512;28;20443;-72
2023/04/05 02:53:17;;;;;;;1999.90;999.90;;;;;;;5.39;49.65;100889.09;5029553;28;20395;-73
2023/04/05 02:55:50;;;;;;;1999.90;999.90;;;;;;;5.39;49.54;100889.09;5018496;28;20396;-73
2023/04/05 02:58:15;;;;;;;1999.90;999.90;;;;;;;5.34;49.51;100884.31;5027401;28;20524;-73
2023/04/05 03:00:40;;;;;;;1999.90;999.90;;;;;;;5.34;49.70;100888.84;5028253;28;20866;-73
2023/04/05 03:03:06;;;;;;;1999.90;999.90;;;;;;;5.27;49.71;100890.69;5016817;28;20480;-72
2023/04/05 03:05:31;;;;;;;1999.90;999.90;;;;;;;5.23;49.55;100884.91;5026721;28;20412;-72
2023/04/05 03:07:58;;;;;;;1999.90;999.90;;;;;;;5.23;49.95;100887.59;5023525;28;20794;-73
2023/04/05 03:10:25;;;;;;;1999.90;999.90;;;;;;;5.20;50.18;100882.59;5019316;28;20404;-72
2023/04/05 03:12:50;;;;;;;1999.90;999.90;;;;;;;5.22;50.00;100888.59;5029078;28;20471;-72
2023/04/05 03:15:15;;;;;;;1999.90;999.90;;;;;;;5.19;50.38;100892.53;5033071;28;20498;-72
2023/04/05 03:17:43;;;;;;;1999.90;999.90;;;;;;;5.22;49.99;100894.81;5031902;28;20756;-73
2023/04/05 03:20:09;;;;;;;1999.90;999.90;;;;;;;5.12;50.44;100888.13;5029050;28;20414;-72
2023/04/05 03:22:35;;;;;;;1999.90;999.90;;;;;;;4.99;50.83;100890.75;5030201;28;20965;-72
2023/04/05 03:25:00;;;;;;;1999.90;999.90;;;;;;;4.97;50.64;100884.75;5017340;28;20407;-73
2023/04/05 03:27:26;;;;;;;1999.90;999.90;;;;;;;5.04;50.80;100889.13;5031324;28;20411;-73
2023/04/05 03:29:51;;;;;;;1999.90;999.90;;;;;;;5.12;50.45;100886.28;5032569;28;20802;-72
2023/04/05 03:32:16;;;;;;;1999.90;999.90;;;;;;;5.13;50.26;100889.81;5017430;28;20400;-72
2023/04/05 03:34:42;;;;;;;1999.90;999.90;;;;;;;5.13;50.31;100893.31;5018898;28;20404;-73
2023/04/05 03:37:08;;;;;;;1999.90;999.90;;;;;;;5.15;50.28;100893.09;5015665;28;20423;-72
2023/04/05 03:39:33;;;;;;;1999.90;999.90;;;;;;;5.08;50.45;100889.56;5032665;28;20763;-72
2023/04/05 03:41:58;;;;;;;1999.90;999.90;;;;;;;5.06;50.60;100897.00;5017992;28;20472;-73
2023/04/05 03:44:23;;;;;;;1999.90;999.90;;;;;;;5.01;50.51;100892.19;5028664;28;20399;-73
2023/04/05 03:46:48;;;;;;;1999.90;999.90;;;;;;;5.00;50.65;100887.88;5017252;28;20804;-73
2023/04/05 03:49:15;;;;;;;1999.90;999.90;;;;;;;4.95;50.98;100890.31;5025003;28;20448;-73
2023/04/05 03:51:40;;;;;;;1999.90;999.90;;;;;;;4.93;50.92;100887.00;5012391;28;20393;-73
2023/04/05 03:54:06;;;;;;;1999.90;999.90;;;;;;;4.92;51.31;100881.81;5028403;28;20810;-73
2023/04/05 03:56:32;;;;;;;1999.90;999.90;;;;;;;4.91;51.07;100890.91;5017321;28;20438;-72
2023/04/05 03:58:57;;;;;;;1999.90;999.90;;;;;;;4.90;51.26;100882.03;5030778;28;20522;-73
2023/04/05 04:01:22;;;;;;;1999.90;999.90;;;;;;;4.88;51.41;100886.75;5019571;28;20400;-73
2023/04/05 04:03:47;;;;;;;1999.90;999.90;;;;;;;4.87;51.43;100879.75;5026800;28;20418;-73
2023/04/05 04:06:13;;;;;;;1999.90;999.90;;;;;;;4.88;51.49;100889.44;5012518;28;20393;-73
2023/04/05 04:08:38;;;;;;;1999.90;999.90;;;;;;;4.86;51.13;100888.81;5023989;28;20403;-72
2023/04/05 04:11:03;;;;;;;1999.90;999.90;;;;;;;4.86;51.50;100890.66;5031883;28;20399;-72
2023/04/05 04:13:29;;;;;;;1999.90;999.90;;;;;;;4.86;51.70;100894.19;5027308;28;20911;-73
2023/04/05 04:15:54;;;;;;;1999.90;999.90;;;;;;;4.83;51.84;100897.28;5026786;28;20496;-73
2023/04/05 04:18:19;;;;;;;1999.90;999.90;;;;;;;4.81;51.76;100891.25;5027060;28;20438;-73
2023/04/05 04:20:46;;;;;;;1999.90;999.90;;;;;;;4.76;51.71;100885.66;5021492;28;20397;-72
2023/04/05 04:23:13;;;;;;;1999.90;999.90;;;;;;;4.76;51.53;100891.03;5025181;28;20407;-72
2023/04/05 04:25:39;;;;;;;1999.90;999.90;;;;;;;4.75;51.55;100896.56;5013687;28;20498;-73
2023/04/05 04:28:08;;;;;;;1999.90;999.90;;;;;;;4.76;51.58;100893.72;5020939;28;20413;-73
2023/04/05 04:30:34;;;;;;;1999.90;999.90;;;;;;;4.72;51.86;100898.63;5037017;28;20471;-73
2023/04/05 04:33:03;;;;;;;1999.90;999.90;;;;;;;4.61;51.82;100893.81;5012128;28;20404;-73
2023/04/05 04:35:37;;;;;;;1999.90;999.90;;;;;;;4.63;51.95;100891.78;5013813;28;20401;-72
2023/04/05 04:38:07;;;;;;;1999.90;999.90;;;;;;;4.65;51.93;100880.81;5023530;28;20500;-72
2023/04/05 04:40:40;;;;;;;1999.90;999.90;;;;;;;4.63;52.04;100889.09;5022165;28;20395;-72
2023/04/05 04:43:13;;;;;;;1999.90;999.90;;;;;;;4.65;52.38;100886.19;5015484;28;20444;-73
2023/04/05 04:45:38;;;;;;;1999.90;999.90;;;;;;;4.64;52.54;100888.03;5031542;28;20407;-73
2023/04/05 04:48:03;;;;;;;1999.90;999.90;;;;;;;4.64;52.50;100892.59;5029265;28;20407;-72
2023/04/05 04:50:30;;;;;;;1999.90;999.90;;;;;;;4.56;52.37;100885.53;5046808;28;20816;-72
2023/04/05 04:52:57;;;;;;;1999.90;999.90;;;;;;;4.50;52.64;100890.84;5015569;28;20405;-72
2023/04/05 04:55:24;;;;;;;1999.90;999.90;;;;;;;4.57;52.27;100887.19;5015278;28;20513;-72
2023/04/05 04:57:50;;;;;;;1999.90;999.90;;;;;;;4.62;52.06;100883.91;5027308;28;20522;-72
2023/04/05 05:00:16;;;;;;;1999.90;999.90;;;;;;;4.66;51.91;100887.84;5034517;28;20493;-73
2023/04/05 05:02:42;;;;;;;1999.90;999.90;;;;;;;4.64;52.01;100885.34;5018695;28;20497;-73
2023/04/05 05:05:08;;;;;;;1999.90;999.90;;;;;;;4.62;51.98;100887.41;5018688;28;20401;-72
2023/04/05 05:07:35;;;;;;;1999.90;999.90;;;;;;;4.58;51.88;100886.13;5033490;28;20497;-72
2023/04/05 05:10:00;;;;;;;1999.90;999.90;;;;;;;4.53;52.28;100879.72;5030868;28;20894;-72
2023/04/05 05:12:26;;;;;;;1999.90;999.90;;;;;;;4.50;52.02;100886.31;5031501;28;20476;-73
2023/04/05 05:14:51;;;;;;;1999.90;999.90;;;;;;;4.46;51.95;100886.88;5032947;28;21143;-73
2023/04/05 05:17:17;;;;;;;1999.90;999.90;;;;;;;4.30;52.26;100884.47;5028657;28;20471;-73
2023/04/05 05:19:42;;;;;;;1999.90;999.90;;;;;;;4.28;52.46;100898.06;5027734;28;20482;-73
2023/04/05 05:22:07;;;;;;;1999.90;999.90;;;;;;;4.36;52.47;100891.75;5030073;28;20499;-73
2023/04/05 05:24:32;;;;;;;1999.90;999.90;;;;;;;4.39;52.27;100896.72;5051874;28;20489;-73
2023/04/05 05:26:58;;;;;;;1999.90;999.90;;;;;;;4.41;51.93;100900.88;5034093;28;20406;-73
2023/04/05 05:29:23;;;;;;;1999.90;999.90;;;;;;;4.37;52.20;100906.84;5034178;28;20406;-73
2023/04/05 05:31:49;;;;;;;1999.90;999.90;;;;;;;4.36;52.16;100911.38;5030965;28;20930;-73
2023/04/05 05:34:14;;;;;;;1999.90;999.90;;;;;;;4.34;52.16;100912.59;5030775;28;20905;-73
2023/04/05 05:36:40;;;;;;;1999.90;999.90;;;;;;;4.38;52.48;100911.19;5034307;28;20411;-72
2023/04/05 05:39:06;;;;;;;1999.90;999.90;;;;;;;4.39;52.32;100908.28;5027398;28;20854;-74
2023/04/05 05:41:32;;;;;;;1999.90;999.90;;;;;;;4.44;52.15;100910.41;5013467;28;20396;-73
2023/04/05 05:43:57;;;;;;;1999.90;999.90;;;;;;;4.41;52.17;100911.59;5026118;28;20407;-72
2023/04/05 05:46:22;;;;;;;1999.90;999.90;;;;;;;4.43;51.99;100911.41;5015657;28;20400;-72
2023/04/05 05:48:47;;;;;;;1999.90;999.90;;;;;;;4.47;52.32;100910.00;5032342;28;20460;-72
2023/04/05 05:51:13;;;;;;;1999.90;999.90;;;;;;;4.48;52.02;100917.06;5033953;28;20482;-72
2023/04/05 05:53:38;;;;;;;1999.90;999.90;;;;;;;4.54;52.02;100918.97;5031034;28;20966;-73
2023/04/05 05:56:04;;;;;;;1999.90;999.90;;;;;;;4.56;51.93;100920.41;5029817;28;20399;-73
2023/04/05 05:58:30;;;;;;;1999.90;999.90;;;;;;;4.65;52.06;100927.28;5029234;28;20421;-72
2023/04/05 06:00:55;;;;;;;1999.90;999.90;;;;;;;4.72;51.77;100925.50;5027178;28;20407;-72
2023/04/05 06:03:21;;;;;;;1999.90;999.90;;;;;;;4.81;51.56;100930.72;5024629;28;20404;-73
2023/04/05 06:05:56;;;;;;;1999.90;999.90;;;;;;;4.86;51.32;100931.78;5021768;28;20409;-72
2023/04/05 06:08:23;;;;;;;1999.90;999.90;;;;;;;4.91;51.16;100929.31;5023290;28;20398;-72
2023/04/05 06:10:49;;;;;;;1999.90;999.90;;;;;;;4.99;51.22;100931.88;5029484;28;20418;-73
2023/04/05 06:13:14;;;;;;;1999.90;999.90;;;;;;;5.01;51.09;100929.81;5032609;28;20430;-74
2023/04/05 06:15:41;;;;;;;1999.90;999.90;;;;;;;5.08;51.06;100930.69;5032018;28;20404;-73
2023/04/05 06:18:07;;;;;;;1999.90;999.90;;;;;;;5.16;50.86;100929.69;5033253;28;20902;-73
2023/04/05 06:20:32;;;;;;;1999.90;999.90;;;;;;;5.20;50.37;100923.72;5033363;28;20549;-74
2023/04/05 06:22:57;;;;;;;1999.90;999.90;;;;;;;5.18;50.99;100925.78;5031438;28;20954;-73
2023/04/05 06:25:22;;;;;;;1999.90;999.90;;;;;;;5.24;50.29;100926.84;5030607;28;20419;-73
2023/04/05 06:27:48;;;;;;;1999.90;999.90;;;;;;;5.24;50.19;100924.97;5041015;28;20420;-72
2023/04/05 06:30:13;;;;;;;1999.90;999.90;;;;;;;5.28;50.00;100917.34;5031553;28;20414;-72
2023/04/05 06:32:39;;;;;;;1999.90;999.90;;;;;;;5.21;49.94;100919.19;5029028;28;20755;-72
2023/04/05 06:35:05;;;;;;;1999.90;999.90;;;;;;;5.28;50.16;100928.09;5027570;28;20441;-72
2023/04/05 06:37:30;;;;;;;1999.90;999.90;;;;;;;5.27;49.76;100931.00;5017402;28;20423;-72
2023/04/05 06:39:57;;;;;;;1999.90;999.90;;;;;;;5.44;49.29;100921.56;5030109;28;20797;-72
2023/04/05 06:42:22;;;;;;;1999.90;999.90;;;;;;;5.49;49.21;100922.63;5028190;28;20400;-72
2023/04/05 06:44:47;;;;;;;1999.90;999.90;;;;;;;5.47;49.47;100922.00;5027612;28;20453;-72
2023/04/05 06:47:13;;;;;;;1999.90;999.90;;;;;;;5.58;49.37;100928.66;5017460;28;20745;-72
2023/04/05 06:49:38;;;;;;;1999.90;999.90;;;;;;;5.66;49.36;100923.13;5028969;28;20401;-72
2023/04/05 06:52:05;;;;;;;1999.90;999.90;;;;;;;5.63;49.27;100920.84;5033307;28;20870;-73
2023/04/05 06:54:36;;;;;;;1999.90;999.90;;;;;;;5.66;49.62;100917.75;5020087;28;20730;-72
2023/04/05 06:57:01;;;;;;;1999.90;999.90;;;;;;;5.65;49.34;100924.13;5018991;28;20764;-72
2023/04/05 06:59:28;;;;;;;1999.90;999.90;;;;;;;5.55;49.29;100912.94;5011671;28;20420;-72
2023/04/05 07:01:53;;;;;;;1999.90;999.90;;;;;;;5.61;49.09;100917.50;5045123;28;20397;-72
2023/04/05 07:04:19;;;;;;;1999.90;999.90;;;;;;;5.77;48.58;100919.81;5045239;28;20458;-72
2023/04/05 07:06:44;;;;;;;1999.90;999.90;;;;;;;5.80;49.00;100922.09;5029797;28;20863;-72
2023/04/05 07:09:09;;;;;;;1999.90;999.90;;;;;;;5.90;48.87;100922.59;5018363;28;20732;-72
2023/04/05 07:11:35;;;;;;;1999.90;999.90;;;;;;;5.99;49.00;100916.00;5023451;28;20409;-73
2023/04/05 07:14:00;;;;;;;1999.90;999.90;;;;;;;6.05;49.14;100917.03;5021618;28;20392;-72
2023/04/05 07:16:26;;;;;;;1999.90;999.90;;;;;;;6.15;48.51;100920.16;5012871;28;20464;-72
2023/04/05 07:18:51;;;;;;;1999.90;999.90;;;;;;;6.29;47.96;100911.06;5029124;28;20507;-72
2023/04/05 07:21:16;;;;;;;1999.90;999.90;;;;;;;6.74;47.26;100914.78;5030436;28;20818;-72
2023/04/05 07:23:41;;;;;;;1999.90;999.90;;;;;;;7.08;45.91;100909.13;5021042;28;20404;-72
2023/04/05 07:26:07;;;;;;;1999.90;999.90;;;;;;;6.95;46.28;100919.13;5029421;28;20888;-72
2023/04/05 07:28:34;;;;;;;1999.90;999.90;;;;;;;6.77;46.55;100919.75;5042737;28;20915;-72
2023/04/05 07:31:00;;;;;;;1999.90;999.90;;;;;;;6.72;46.63;100916.84;5015253;28;20416;-73
2023/04/05 07:33:26;;;;;;;1999.90;999.90;;;;;;;6.68;46.90;100918.31;5019571;28;20412;-72
2023/04/05 07:35:52;;;;;;;1999.90;999.90;;;;;;;6.65;46.77;100916.84;5012737;28;20395;-72
2023/04/05 07:38:18;;;;;;;1999.90;999.90;;;;;;;6.57;46.94;100921.63;5028659;28;20418;-72
2023/04/05 07:40:43;;;;;;;1999.90;999.90;;;;;;;6.55;46.71;100927.22;5023662;28;20407;-72
2023/04/05 07:43:08;;;;;;;1999.90;999.90;;;;;;;6.50;46.49;100918.94;5023961;28;20385;-72
2023/04/05 07:45:33;;;;;;;1999.90;999.90;;;;;;;6.54;46.42;100924.75;5024684;28;20747;-72
2023/04/05 07:47:59;;;;;;;1999.90;999.90;;;;;;;6.55;46.31;100927.22;5019639;28;20409;-72
2023/04/05 07:50:25;;;;;;;1999.90;999.90;;;;;;;6.61;46.09;100933.66;5019149;28;20415;-73
2023/04/05 07:52:50;;;;;;;1999.90;999.90;;;;;;;6.73;46.18;100923.91;5039847;28;20405;-72
2023/04/05 07:55:16;;;;;;;1999.90;999.90;;;;;;;6.83;45.64;100920.78;5022438;28;21610;-72
2023/04/05 07:57:41;;;;;;;1999.90;999.90;;;;;;;6.85;45.99;100926.81;5015774;28;20471;-73
2023/04/05 08:00:11;;;;;;;1999.90;999.90;;;;;;;6.87;45.87;100928.25;5029461;28;20411;-72
2023/04/05 08:02:36;;;;;;;1999.90;999.90;;;;;;;6.91;44.98;100929.50;5030940;28;20407;-72
2023/04/05 08:05:02;;;;;;;1999.90;999.90;;;;;;;7.02;45.76;100930.69;5027784;28;20926;-72
2023/04/05 08:07:28;;;;;;;1999.90;999.90;;;;;;;7.09;45.04;100928.81;5047096;28;20970;-72
2023/04/05 08:09:56;;;;;;;1999.90;999.90;;;;;;;7.19;45.76;100930.03;5013919;28;20495;-72
2023/04/05 08:12:21;;;;;;;1999.90;999.90;;;;;;;7.28;44.91;100925.25;5030626;28;20457;-72
2023/04/05 08:14:47;;;;;;;1999.90;999.90;;;;;;;7.37;45.42;100921.28;5037147;28;20397;-73
2023/04/05 08:17:13;;;;;;;1999.90;999.90;;;;;;;7.46;44.36;100917.31;5025523;28;20894;-72
2023/04/05 08:19:38;;;;;;;1999.90;999.90;;;;;;;7.58;44.74;100921.00;5028082;28;20414;-72
2023/04/05 08:22:04;;;;;;;1999.90;999.90;;;;;;;7.72;43.81;100925.28;5017372;28;20416;-73
2023/04/05 08:24:29;;;;;;;1999.90;999.90;;;;;;;7.86;43.66;100914.44;5022054;28;20901;-73
2023/04/05 08:26:55;;;;;;;1999.90;999.90;;;;;;;7.94;43.79;100908.75;5018695;28;20409;-73
2023/04/05 08:29:20;;;;;;;1999.90;999.90;;;;;;;7.93;44.17;100912.53;5018913;28;20406;-72
2023/04/05 08:31:45;;;;;;;1999.90;999.90;;;;;;;8.06;43.96;100912.44;5027118;28;20412;-74
2023/04/05 08:34:11;;;;;;;1999.90;999.90;;;;;;;8.18;43.79;100908.81;5027370;28;20472;-73
2023/04/05 08:36:36;;;;;;;1306.78;750.28;;;;;;;8.24;43.14;100910.66;5019501;28;20404;-72
2023/04/05 08:39:02;;;;;;;1442.57;890.20;;;;;;;8.29;43.36;100913.56;5022978;28;20493;-72
2023/04/05 08:41:40;;;;;;;1816.77;999.90;;;;;;;8.37;43.02;100920.56;5029460;28;20392;-72
2023/04/05 08:44:09;;;;;;;1420.50;999.90;;;;;;;8.46;42.75;100918.44;5020466;28;20715;-72
2023/04/05 08:46:34;;;;;;;1513.40;999.90;;;;;;;8.51;42.54;100913.19;5030634;28;20948;-72
2023/04/05 08:49:05;;;;;;;1549.40;999.90;;;;;;;8.60;42.51;100912.69;5024831;28;20407;-72
2023/04/05 08:51:30;;;;;;;1622.63;999.90;;;;;;;8.70;42.40;100906.78;5029516;28;20494;-73
2023/04/05 08:53:55;;;;;;;1807.67;999.90;;;;;;;8.81;42.20;100909.59;5018290;28;20486;-72
2023/04/05 08:56:25;;;;;;;1895.67;999.90;;;;;;;9.04;41.81;100911.66;5025417;28;20419;-73
2023/04/05 08:59:11;;;;;;;1683.30;999.90;;;;;;;9.21;40.95;100914.59;5013544;28;20493;-72
2023/04/05 09:01:41;;;;;;;1056.25;956.70;;;;;;;9.35;40.94;100916.91;5029712;28;20407;-73
2023/04/05 09:04:15;;;;;;;839.90;772.45;;;;;;;9.73;40.33;100907.72;5022465;28;20403;-73
2023/04/05 09:06:42;;;;;;;676.33;626.58;;;;;;;10.12;39.57;100906.31;5022511;28;20404;-73
2023/04/05 09:09:08;;;;;;;60.58;57.17;;;;;;;10.45;39.28;100909.38;5030718;28;20405;-73
2023/04/05 09:11:34;;;;;;;19.35;17.92;;;;;;;10.75;38.67;100917.44;5025359;28;20409;-73
2023/04/05 09:14:06;;;;;;;6.50;4.82;;;;;;;10.95;37.94;100907.06;5041375;28;20861;-74
2023/04/05 09:16:39;;;;;;;6.25;5.75;;;;;;;11.46;37.83;100898.13;5016760;28;20805;-73
2023/04/05 09:19:05;;;;;;;6.93;4.35;;;;;;;11.96;36.67;100901.91;5027596;28;20411;-74
2023/04/05 09:22:00;;;;;;;6.80;4.50;;;;;;;12.42;35.34;100905.44;5028938;28;20393;-73
2023/04/05 09:24:45;;;;;;;7.20;4.05;;;;;;;12.25;36.04;100899.19;5027964;28;20379;-74
2023/04/05 09:27:11;;;;;;;8.55;4.43;;;;;;;12.31;36.34;100893.59;5029651;28;20415;-74
2023/04/05 09:29:39;;;;;;;5.47;4.10;;;;;;;12.60;35.09;100901.66;5026459;28;20396;-74
2023/04/05 09:32:06;;;;;;;5.43;3.53;;;;;;;12.68;35.38;100887.66;5025915;28;20395;-74
2023/04/05 09:34:33;;;;;;;9.52;3.60;;;;;;;12.78;35.37;100888.63;5028182;28;20416;-74
2023/04/05 09:36:59;;;;;;;6.20;4.23;;;;;;;13.19;34.76;100881.06;5030214;28;20479;-74
2023/04/05 09:39:29;;;;;;;7.00;4.03;;;;;;;13.99;33.42;100890.19;5029793;28;20830;-74
2023/04/05 09:42:24;;;;;;;4.90;4.07;;;;;;;15.16;31.02;100891.19;5026518;28;20478;-73
2023/04/05 09:45:06;;;;;;;6.28;3.47;;;;;;;15.59;30.20;100888.16;5021893;28;20415;-74
2023/04/05 09:47:35;;;;;;;5.55;3.75;;;;;;;15.46;30.58;100883.13;5029577;28;20568;-74
2023/04/05 09:50:06;;;;;;;5.78;3.75;;;;;;;15.46;30.54;100886.69;5033211;28;20464;-73
2023/04/05 09:52:32;;;;;;;4.15;3.58;;;;;;;15.41;30.12;100885.88;5044438;28;20426;-73
2023/04/05 09:55:03;;;;;;;4.90;3.47;;;;;;;15.74;29.38;100874.53;5032596;28;20407;-73
2023/04/05 09:57:33;;;;;;;3.85;3.25;;;;;;;16.42;28.36;100877.94;5033237;28;20755;-74
2023/04/05 09:59:59;;;;;;;5.40;3.63;;;;;;;16.98;27.65;100881.47;5032236;28;20875;-74
2023/04/05 10:02:24;;;;;;;5.87;3.50;;;;;;;17.80;26.96;100869.97;5041634;28;20420;-74
2023/04/05 10:04:50;;;;;;;3.97;3.20;;;;;;;18.39;25.76;100878.06;5029564;28;20407;-74
2023/04/05 10:07:18;;;;;;;5.07;3.78;;;;;;;19.14;25.60;100875.72;5024298;28;20857;-74
2023/04/05 10:09:46;;;;;;;4.55;3.63;;;;;;;20.07;24.54;100880.63;5032765;28;20403;-73
2023/04/05 10:12:28;;;;;;;9.90;4.03;;;;;;;21.01;23.28;100879.34;5014471;28;20395;-77
2023/04/05 10:14:54;;;;;;;4.75;3.38;;;;;;;21.62;22.36;100881.75;5032038;28;20442;-74
2023/04/05 10:17:51;;;;;;;5.28;3.70;;;;;;;22.22;21.88;100876.84;5044347;28;20415;-74
2023/04/05 10:20:19;;;;;;;4.45;3.45;;;;;;;22.57;21.01;100877.91;5032057;28;20480;-74
2023/04/05 10:22:53;;;;;;;4.13;3.72;;;;;;;23.07;20.82;100875.81;5032369;28;20429;-74
2023/04/05 10:25:50;;;;;;;6.13;4.90;;;;;;;23.34;19.93;100869.25;5026035;28;22648;-74
2023/04/05 10:28:34;;;;;;;4.57;3.42;;;;;;;23.81;19.54;100869.56;5022549;28;20460;-74
2023/04/05 10:31:27;;;;;;;5.38;3.63;;;;;;;24.28;19.16;100863.09;5031825;28;20762;-74
2023/04/05 10:34:23;;;;;;;7.60;3.65;;;;;;;24.76;18.06;100862.88;5016875;28;20444;-75
2023/04/05 10:36:56;;;;;;;3.97;3.57;;;;;;;24.92;18.21;100861.22;5030018;28;20462;-74
2023/04/05 10:39:44;;;;;;;8.27;3.63;;;;;;;25.36;18.02;100859.88;5021084;28;20415;-74
2023/04/05 10:42:19;;;;;;;4.95;3.75;;;;;;;25.61;17.63;100853.44;5027902;28;20400;-74
2023/04/05 10:44:50;;;;;;;6.40;3.47;;;;;;;25.78;17.33;100849.72;5042955;28;20935;-74
2023/04/05 10:47:18;;;;;;;5.30;2.70;;;;;;;26.05;17.53;100860.28;5024717;28;20426;-74
2023/04/05 10:49:48;;;;;;;3.55;3.25;;;;;;;26.31;17.50;100860.13;5036368;28;20399;-74
2023/04/05 10:52:16;;;;;;;3.47;3.15;;;;;;;26.70;17.26;100842.06;5019093;28;20389;-74
2023/04/05 10:54:42;;;;;;;5.10;3.80;;;;;;;26.87;16.56;100846.66;5013330;28;20918;-74
2023/04/05 10:57:08;;;;;;;5.77;2.77;;;;;;;27.09;16.58;100843.44;5013912;28;20419;-73
2023/04/05 10:59:35;;;;;;;3.90;3.50;;;;;;;27.31;16.68;100843.00;5021944;28;20405;-74
2023/04/05 11:02:01;;;;;;;3.58;3.28;;;;;;;27.57;15.74;100848.22;5023510;28;20415;-74
2023/04/05 11:04:26;;;;;;;4.23;3.60;;;;;;;27.72;14.91;100845.56;5029430;28;20497;-75